Houghton County Memorial Airport
KCMX : rendu visible

Aérodrome :











RETROUVEZ-NOUS SUR...

 
LOGIN :

S'inscrire | Disclaimer

   EN    FR    IT 

 









Légende :    VFR   VFR Marginal   IFR   IFR Intensif   IFR Très Intensif
Visi : 
Plafond : 
>= 8 km
>= 3000ft
5 à 8 km
1000 à 3000 ft
1500m à 5 km
500 à 1000 ft
800 à 1500m
200 à 500 ft
< 800m
< 200 ft
Symboles :   Orages  Brouillard  Fortes neiges  Fortes précipitations  Vent > 20 kt






- Altitude de l'aérodrome : 1095 ft
- Code IATA : CMX


KCMX - Houghton County Memorial

DERNIER METAR :
  • 240553Z AUTO 29020G31KT 10SM CLR 02/M04 A2976 RMK AO2 PK WND 28031/0548 SLP085 T00171044 10033 20011 53011

METARs EXPIRÉS :
  • 240453Z AUTO 28021G28KT 10SM CLR 01/M03 A2974 RMK AO2 PK WND 29031/0436 SLP080 T00111033 400721056
  • 240353Z AUTO 28021G33KT 10SM CLR 02/M04 A2973 RMK AO2 PK WND 29033/0352 SLP079 T00171039

TAF KCMX
Valide du 24 à 06h jusqu'au 25 à 06h UTC


240522Z 2406/2506 28019G28KT P6SM BKN040
FM240900 28011G18KT P6SM BKN035
FM241500 31009KT P6SM BKN035
FM242300 VRB04KT P6SM BKN035
FM250300 VRB04KT P6SM BKN030



MET'MAP, la Météo Aéronautique d'un coup d'oeil ! - Copyright ORBIFLY Décembre 2007 - Disclaimer

ORBIFLY MET'MAP TEAM :

Programmation & Développement : Alexandra Zaïnal
Sur une idée originale de : Baudouin d'Aumeries
Assistance à la programmation : Marc-Olivier Méhu
Soutien technique & logistique : Manuel Goepfert

Contact : metmap@orbifly.com




SOURCES & CREDITS :

   NOAA       Earth
Advisory